sensor_id;sensor_type;location;lat;lon;timestamp;P1;durP1;ratioP1;P2;durP2;ratioP2
40367;SDS011;26075;43.320;21.920;2022-11-15T00:04:50;14.18;;;10.00;;
40367;SDS011;26075;43.320;21.920;2022-11-15T00:09:51;14.60;;;10.32;;
40367;SDS011;26075;43.320;21.920;2022-11-15T00:14:52;16.90;;;10.95;;
40367;SDS011;26075;43.320;21.920;2022-11-15T00:19:53;15.02;;;10.10;;
40367;SDS011;26075;43.320;21.920;2022-11-15T00:24:54;14.40;;;10.00;;
40367;SDS011;26075;43.320;21.920;2022-11-15T00:29:55;14.48;;;10.25;;
40367;SDS011;26075;43.320;21.920;2022-11-15T00:34:56;15.85;;;9.68;;
40367;SDS011;26075;43.320;21.920;2022-11-15T00:39:57;14.00;;;8.85;;
40367;SDS011;26075;43.320;21.920;2022-11-15T00:44:58;13.80;;;9.60;;
40367;SDS011;26075;43.320;21.920;2022-11-15T00:49:59;13.57;;;8.82;;
40367;SDS011;26075;43.320;21.920;2022-11-15T00:55:00;13.73;;;9.18;;
40367;SDS011;26075;43.320;21.920;2022-11-15T01:00:01;14.63;;;9.23;;
40367;SDS011;26075;43.320;21.920;2022-11-15T01:05:02;14.07;;;9.07;;
40367;SDS011;26075;43.320;21.920;2022-11-15T01:10:04;13.90;;;9.65;;
40367;SDS011;26075;43.320;21.920;2022-11-15T01:15:05;14.95;;;10.23;;
40367;SDS011;26075;43.320;21.920;2022-11-15T01:20:06;14.63;;;10.65;;
40367;SDS011;26075;43.320;21.920;2022-11-15T01:25:07;14.65;;;10.23;;
40367;SDS011;26075;43.320;21.920;2022-11-15T01:30:09;14.73;;;10.63;;
40367;SDS011;26075;43.320;21.920;2022-11-15T01:35:10;19.13;;;10.90;;
40367;SDS011;26075;43.320;21.920;2022-11-15T01:40:11;13.38;;;10.00;;
40367;SDS011;26075;43.320;21.920;2022-11-15T01:45:13;16.25;;;10.45;;
40367;SDS011;26075;43.320;21.920;2022-11-15T01:50:16;14.95;;;10.02;;
40367;SDS011;26075;43.320;21.920;2022-11-15T01:55:18;14.95;;;10.45;;
40367;SDS011;26075;43.320;21.920;2022-11-15T02:00:20;15.40;;;11.10;;
40367;SDS011;26075;43.320;21.920;2022-11-15T02:05:21;17.23;;;11.93;;
40367;SDS011;26075;43.320;21.920;2022-11-15T02:10:23;18.95;;;13.00;;
40367;SDS011;26075;43.320;21.920;2022-11-15T02:15:25;18.73;;;12.30;;
40367;SDS011;26075;43.320;21.920;2022-11-15T02:30:49;15.82;;;11.10;;
40367;SDS011;26075;43.320;21.920;2022-11-15T02:40:57;16.75;;;11.88;;
40367;SDS011;26075;43.320;21.920;2022-11-15T02:46:01;15.50;;;11.47;;
40367;SDS011;26075;43.320;21.920;2022-11-15T02:51:04;14.63;;;10.90;;
40367;SDS011;26075;43.320;21.920;2022-11-15T02:56:07;14.05;;;10.35;;
40367;SDS011;26075;43.320;21.920;2022-11-15T03:06:37;15.93;;;11.68;;
40367;SDS011;26075;43.320;21.920;2022-11-15T03:11:42;16.27;;;10.77;;
40367;SDS011;26075;43.320;21.920;2022-11-15T03:21:46;19.25;;;12.95;;
40367;SDS011;26075;43.320;21.920;2022-11-15T03:26:48;18.25;;;12.70;;
40367;SDS011;26075;43.320;21.920;2022-11-15T03:32:07;19.60;;;12.25;;
40367;SDS011;26075;43.320;21.920;2022-11-15T03:37:09;17.35;;;11.45;;
40367;SDS011;26075;43.320;21.920;2022-11-15T03:47:15;15.77;;;11.10;;
40367;SDS011;26075;43.320;21.920;2022-11-15T03:52:18;17.35;;;11.70;;
40367;SDS011;26075;43.320;21.920;2022-11-15T03:57:19;17.08;;;11.35;;
40367;SDS011;26075;43.320;21.920;2022-11-15T04:02:20;18.13;;;12.15;;
40367;SDS011;26075;43.320;21.920;2022-11-15T04:07:21;16.58;;;11.50;;
40367;SDS011;26075;43.320;21.920;2022-11-15T04:12:23;16.75;;;12.02;;
40367;SDS011;26075;43.320;21.920;2022-11-15T04:17:54;18.92;;;12.65;;
40367;SDS011;26075;43.320;21.920;2022-11-15T04:22:55;19.48;;;13.75;;
40367;SDS011;26075;43.320;21.920;2022-11-15T04:28:14;16.85;;;12.35;;
40367;SDS011;26075;43.320;21.920;2022-11-15T04:33:16;19.70;;;12.63;;
40367;SDS011;26075;43.320;21.920;2022-11-15T04:38:17;20.33;;;13.77;;
40367;SDS011;26075;43.320;21.920;2022-11-15T04:43:18;20.95;;;13.75;;
40367;SDS011;26075;43.320;21.920;2022-11-15T04:48:19;19.95;;;14.07;;
40367;SDS011;26075;43.320;21.920;2022-11-15T04:53:20;19.42;;;12.85;;
40367;SDS011;26075;43.320;21.920;2022-11-15T04:58:20;19.85;;;13.27;;
40367;SDS011;26075;43.320;21.920;2022-11-15T05:03:21;21.00;;;14.07;;
40367;SDS011;26075;43.320;21.920;2022-11-15T05:08:41;18.38;;;12.52;;
40367;SDS011;26075;43.320;21.920;2022-11-15T05:13:42;21.35;;;13.05;;
40367;SDS011;26075;43.320;21.920;2022-11-15T05:18:43;17.52;;;12.73;;
40367;SDS011;26075;43.320;21.920;2022-11-15T05:23:44;25.38;;;15.93;;
40367;SDS011;26075;43.320;21.920;2022-11-15T05:28:45;21.05;;;14.93;;
40367;SDS011;26075;43.320;21.920;2022-11-15T05:33:46;23.70;;;14.43;;
40367;SDS011;26075;43.320;21.920;2022-11-15T05:38:48;24.13;;;15.57;;
40367;SDS011;26075;43.320;21.920;2022-11-15T05:43:49;22.55;;;15.05;;
40367;SDS011;26075;43.320;21.920;2022-11-15T05:48:51;23.83;;;16.25;;
40367;SDS011;26075;43.320;21.920;2022-11-15T05:53:53;28.42;;;16.40;;
40367;SDS011;26075;43.320;21.920;2022-11-15T05:58:56;23.70;;;14.85;;
40367;SDS011;26075;43.320;21.920;2022-11-15T06:03:57;26.98;;;16.13;;
40367;SDS011;26075;43.320;21.920;2022-11-15T06:08:58;22.08;;;15.35;;
40367;SDS011;26075;43.320;21.920;2022-11-15T06:13:59;23.23;;;15.55;;
40367;SDS011;26075;43.320;21.920;2022-11-15T06:19:00;24.83;;;17.65;;
40367;SDS011;26075;43.320;21.920;2022-11-15T06:24:01;27.33;;;17.05;;
40367;SDS011;26075;43.320;21.920;2022-11-15T06:29:03;20.85;;;11.25;;
40367;SDS011;26075;43.320;21.920;2022-11-15T06:34:04;28.77;;;13.38;;
40367;SDS011;26075;43.320;21.920;2022-11-15T06:39:05;37.38;;;26.30;;
40367;SDS011;26075;43.320;21.920;2022-11-15T06:44:06;40.92;;;27.20;;
40367;SDS011;26075;43.320;21.920;2022-11-15T06:49:07;36.92;;;27.10;;
40367;SDS011;26075;43.320;21.920;2022-11-15T06:54:08;39.72;;;27.63;;
40367;SDS011;26075;43.320;21.920;2022-11-15T06:59:09;42.78;;;30.52;;
40367;SDS011;26075;43.320;21.920;2022-11-15T07:04:10;49.20;;;32.83;;
40367;SDS011;26075;43.320;21.920;2022-11-15T07:09:11;45.50;;;32.47;;
40367;SDS011;26075;43.320;21.920;2022-11-15T07:14:12;45.35;;;32.08;;
40367;SDS011;26075;43.320;21.920;2022-11-15T07:19:13;46.75;;;31.90;;
40367;SDS011;26075;43.320;21.920;2022-11-15T07:24:14;46.88;;;30.50;;
40367;SDS011;26075;43.320;21.920;2022-11-15T07:29:15;41.80;;;27.33;;
40367;SDS011;26075;43.320;21.920;2022-11-15T07:34:16;41.53;;;24.42;;
40367;SDS011;26075;43.320;21.920;2022-11-15T07:39:17;40.40;;;28.75;;
40367;SDS011;26075;43.320;21.920;2022-11-15T07:44:18;45.45;;;29.50;;
40367;SDS011;26075;43.320;21.920;2022-11-15T07:49:19;40.05;;;29.60;;
40367;SDS011;26075;43.320;21.920;2022-11-15T07:54:20;42.13;;;29.95;;
40367;SDS011;26075;43.320;21.920;2022-11-15T07:59:21;41.90;;;29.98;;
40367;SDS011;26075;43.320;21.920;2022-11-15T08:04:22;51.78;;;32.03;;
40367;SDS011;26075;43.320;21.920;2022-11-15T08:09:23;42.75;;;30.98;;
40367;SDS011;26075;43.320;21.920;2022-11-15T08:14:25;44.45;;;31.23;;
40367;SDS011;26075;43.320;21.920;2022-11-15T08:19:26;46.95;;;31.88;;
40367;SDS011;26075;43.320;21.920;2022-11-15T08:24:27;48.53;;;31.25;;
40367;SDS011;26075;43.320;21.920;2022-11-15T08:29:28;47.92;;;31.40;;
40367;SDS011;26075;43.320;21.920;2022-11-15T08:34:29;47.22;;;33.08;;
40367;SDS011;26075;43.320;21.920;2022-11-15T08:39:30;60.95;;;34.67;;
40367;SDS011;26075;43.320;21.920;2022-11-15T08:44:31;47.35;;;31.77;;
40367;SDS011;26075;43.320;21.920;2022-11-15T08:49:32;47.63;;;32.75;;
40367;SDS011;26075;43.320;21.920;2022-11-15T08:54:33;46.17;;;31.52;;
40367;SDS011;26075;43.320;21.920;2022-11-15T08:59:34;53.42;;;37.00;;
40367;SDS011;26075;43.320;21.920;2022-11-15T09:04:37;54.45;;;37.40;;
40367;SDS011;26075;43.320;21.920;2022-11-15T09:09:38;60.65;;;41.25;;
40367;SDS011;26075;43.320;21.920;2022-11-15T09:14:39;60.25;;;40.10;;
40367;SDS011;26075;43.320;21.920;2022-11-15T09:19:40;54.38;;;39.95;;
40367;SDS011;26075;43.320;21.920;2022-11-15T09:24:41;53.50;;;37.28;;
40367;SDS011;26075;43.320;21.920;2022-11-15T09:29:42;48.13;;;35.17;;
40367;SDS011;26075;43.320;21.920;2022-11-15T09:34:43;48.50;;;33.42;;
40367;SDS011;26075;43.320;21.920;2022-11-15T09:39:44;47.08;;;32.30;;
40367;SDS011;26075;43.320;21.920;2022-11-15T09:49:46;44.80;;;31.67;;
40367;SDS011;26075;43.320;21.920;2022-11-15T09:54:52;42.22;;;30.50;;
40367;SDS011;26075;43.320;21.920;2022-11-15T10:05:15;33.38;;;24.50;;
40367;SDS011;26075;43.320;21.920;2022-11-15T10:15:39;35.13;;;25.27;;
40367;SDS011;26075;43.320;21.920;2022-11-15T10:20:45;37.95;;;25.48;;
40367;SDS011;26075;43.320;21.920;2022-11-15T10:25:47;35.92;;;26.35;;
40367;SDS011;26075;43.320;21.920;2022-11-15T10:30:51;36.78;;;24.23;;
40367;SDS011;26075;43.320;21.920;2022-11-15T10:36:14;35.47;;;22.50;;
40367;SDS011;26075;43.320;21.920;2022-11-15T10:41:35;34.17;;;20.95;;
40367;SDS011;26075;43.320;21.920;2022-11-15T10:46:37;21.98;;;14.57;;
40367;SDS011;26075;43.320;21.920;2022-11-15T10:51:57;19.35;;;13.48;;
40367;SDS011;26075;43.320;21.920;2022-11-15T10:56:59;20.13;;;14.07;;
40367;SDS011;26075;43.320;21.920;2022-11-15T11:02:01;26.30;;;16.90;;
40367;SDS011;26075;43.320;21.920;2022-11-15T11:07:02;23.58;;;17.75;;
40367;SDS011;26075;43.320;21.920;2022-11-15T11:12:04;32.10;;;19.85;;
40367;SDS011;26075;43.320;21.920;2022-11-15T11:22:12;33.22;;;22.17;;
40367;SDS011;26075;43.320;21.920;2022-11-15T11:27:27;28.35;;;21.13;;
40367;SDS011;26075;43.320;21.920;2022-11-15T11:32:34;32.78;;;22.65;;
40367;SDS011;26075;43.320;21.920;2022-11-15T11:47:50;29.88;;;22.35;;
40367;SDS011;26075;43.320;21.920;2022-11-15T11:52:56;31.67;;;21.70;;
40367;SDS011;26075;43.320;21.920;2022-11-15T12:13:28;29.67;;;21.60;;
40367;SDS011;26075;43.320;21.920;2022-11-15T12:18:33;32.53;;;22.20;;
40367;SDS011;26075;43.320;21.920;2022-11-15T12:23:38;31.70;;;21.63;;
40367;SDS011;26075;43.320;21.920;2022-11-15T12:33:42;33.15;;;24.08;;
40367;SDS011;26075;43.320;21.920;2022-11-15T12:44:00;36.75;;;24.13;;
40367;SDS011;26075;43.320;21.920;2022-11-15T12:49:03;35.40;;;26.38;;
40367;SDS011;26075;43.320;21.920;2022-11-15T13:09:52;40.80;;;27.77;;
40367;SDS011;26075;43.320;21.920;2022-11-15T13:14:56;37.42;;;28.02;;
40367;SDS011;26075;43.320;21.920;2022-11-15T13:30:20;40.40;;;29.63;;
40367;SDS011;26075;43.320;21.920;2022-11-15T13:35:22;44.95;;;32.28;;
40367;SDS011;26075;43.320;21.920;2022-11-15T13:40:28;53.08;;;31.10;;
40367;SDS011;26075;43.320;21.920;2022-11-15T13:45:30;44.33;;;31.80;;
40367;SDS011;26075;43.320;21.920;2022-11-15T13:50:31;61.17;;;40.78;;
40367;SDS011;26075;43.320;21.920;2022-11-15T13:55:33;63.65;;;43.40;;
40367;SDS011;26075;43.320;21.920;2022-11-15T14:00:42;72.22;;;45.78;;
40367;SDS011;26075;43.320;21.920;2022-11-15T14:05:44;66.55;;;46.15;;
40367;SDS011;26075;43.320;21.920;2022-11-15T14:10:45;64.82;;;44.65;;
40367;SDS011;26075;43.320;21.920;2022-11-15T14:15:48;62.33;;;44.80;;
40367;SDS011;26075;43.320;21.920;2022-11-15T14:20:49;62.92;;;44.88;;
40367;SDS011;26075;43.320;21.920;2022-11-15T14:25:53;67.07;;;41.55;;
40367;SDS011;26075;43.320;21.920;2022-11-15T14:30:55;64.13;;;40.15;;
40367;SDS011;26075;43.320;21.920;2022-11-15T14:35:58;63.72;;;42.95;;
40367;SDS011;26075;43.320;21.920;2022-11-15T14:40:59;79.90;;;53.70;;
40367;SDS011;26075;43.320;21.920;2022-11-15T14:46:00;61.88;;;42.78;;
40367;SDS011;26075;43.320;21.920;2022-11-15T14:51:01;75.57;;;52.13;;
40367;SDS011;26075;43.320;21.920;2022-11-15T14:56:02;72.07;;;50.13;;
40367;SDS011;26075;43.320;21.920;2022-11-15T15:01:21;67.97;;;45.80;;
40367;SDS011;26075;43.320;21.920;2022-11-15T15:06:22;70.00;;;44.15;;
40367;SDS011;26075;43.320;21.920;2022-11-15T15:11:24;63.28;;;43.38;;
40367;SDS011;26075;43.320;21.920;2022-11-15T15:16:26;64.35;;;40.22;;
40367;SDS011;26075;43.320;21.920;2022-11-15T15:21:28;75.07;;;48.20;;
40367;SDS011;26075;43.320;21.920;2022-11-15T15:26:31;86.35;;;55.97;;
40367;SDS011;26075;43.320;21.920;2022-11-15T15:31:36;82.05;;;51.10;;
40367;SDS011;26075;43.320;21.920;2022-11-15T15:36:37;88.93;;;47.40;;
40367;SDS011;26075;43.320;21.920;2022-11-15T15:41:38;76.30;;;48.42;;
40367;SDS011;26075;43.320;21.920;2022-11-15T15:46:39;93.80;;;56.80;;
40367;SDS011;26075;43.320;21.920;2022-11-15T15:51:40;119.95;;;74.72;;
40367;SDS011;26075;43.320;21.920;2022-11-15T15:56:41;119.10;;;79.40;;
40367;SDS011;26075;43.320;21.920;2022-11-15T16:01:42;139.93;;;83.47;;
40367;SDS011;26075;43.320;21.920;2022-11-15T16:06:43;139.50;;;81.68;;
40367;SDS011;26075;43.320;21.920;2022-11-15T16:11:45;152.57;;;98.95;;
40367;SDS011;26075;43.320;21.920;2022-11-15T16:16:46;150.23;;;96.90;;
40367;SDS011;26075;43.320;21.920;2022-11-15T16:21:47;151.43;;;94.18;;
40367;SDS011;26075;43.320;21.920;2022-11-15T16:26:49;147.55;;;98.30;;
40367;SDS011;26075;43.320;21.920;2022-11-15T16:31:51;148.05;;;95.95;;
40367;SDS011;26075;43.320;21.920;2022-11-15T16:36:52;130.23;;;86.80;;
40367;SDS011;26075;43.320;21.920;2022-11-15T16:41:53;91.80;;;61.75;;
40367;SDS011;26075;43.320;21.920;2022-11-15T16:46:54;90.25;;;58.33;;
40367;SDS011;26075;43.320;21.920;2022-11-15T16:51:55;43.30;;;31.05;;
40367;SDS011;26075;43.320;21.920;2022-11-15T16:56:56;104.15;;;67.03;;
40367;SDS011;26075;43.320;21.920;2022-11-15T17:01:57;110.65;;;72.72;;
40367;SDS011;26075;43.320;21.920;2022-11-15T17:06:58;165.52;;;105.13;;
40367;SDS011;26075;43.320;21.920;2022-11-15T17:11:59;195.20;;;130.68;;
40367;SDS011;26075;43.320;21.920;2022-11-15T17:17:01;216.48;;;144.63;;
40367;SDS011;26075;43.320;21.920;2022-11-15T17:22:02;157.88;;;105.82;;
40367;SDS011;26075;43.320;21.920;2022-11-15T17:27:03;181.32;;;120.55;;
40367;SDS011;26075;43.320;21.920;2022-11-15T17:32:04;190.07;;;124.50;;
40367;SDS011;26075;43.320;21.920;2022-11-15T17:37:05;187.00;;;122.38;;
40367;SDS011;26075;43.320;21.920;2022-11-15T17:42:06;187.75;;;120.05;;
40367;SDS011;26075;43.320;21.920;2022-11-15T17:47:08;180.35;;;118.03;;
40367;SDS011;26075;43.320;21.920;2022-11-15T17:52:09;174.27;;;115.43;;
40367;SDS011;26075;43.320;21.920;2022-11-15T17:57:10;180.88;;;117.93;;
40367;SDS011;26075;43.320;21.920;2022-11-15T18:02:12;191.32;;;124.95;;
40367;SDS011;26075;43.320;21.920;2022-11-15T18:07:13;173.80;;;121.22;;
40367;SDS011;26075;43.320;21.920;2022-11-15T18:12:14;155.77;;;107.97;;
40367;SDS011;26075;43.320;21.920;2022-11-15T18:17:16;112.72;;;77.13;;
40367;SDS011;26075;43.320;21.920;2022-11-15T18:22:18;107.93;;;73.20;;
40367;SDS011;26075;43.320;21.920;2022-11-15T18:27:19;132.52;;;87.85;;
40367;SDS011;26075;43.320;21.920;2022-11-15T18:32:20;120.63;;;79.03;;
40367;SDS011;26075;43.320;21.920;2022-11-15T18:37:21;147.40;;;96.88;;
40367;SDS011;26075;43.320;21.920;2022-11-15T18:42:22;115.13;;;77.93;;
40367;SDS011;26075;43.320;21.920;2022-11-15T18:47:23;104.50;;;63.95;;
40367;SDS011;26075;43.320;21.920;2022-11-15T18:52:24;61.58;;;41.17;;
40367;SDS011;26075;43.320;21.920;2022-11-15T18:57:25;70.20;;;44.70;;
40367;SDS011;26075;43.320;21.920;2022-11-15T19:02:26;61.08;;;43.17;;
40367;SDS011;26075;43.320;21.920;2022-11-15T19:07:29;62.13;;;42.15;;
40367;SDS011;26075;43.320;21.920;2022-11-15T19:12:30;75.95;;;52.30;;
40367;SDS011;26075;43.320;21.920;2022-11-15T19:17:31;84.50;;;54.88;;
40367;SDS011;26075;43.320;21.920;2022-11-15T19:22:32;91.93;;;61.28;;
40367;SDS011;26075;43.320;21.920;2022-11-15T19:27:33;77.35;;;51.38;;
40367;SDS011;26075;43.320;21.920;2022-11-15T19:32:34;70.20;;;46.08;;
40367;SDS011;26075;43.320;21.920;2022-11-15T19:37:35;69.68;;;46.58;;
40367;SDS011;26075;43.320;21.920;2022-11-15T19:42:36;63.58;;;44.28;;
40367;SDS011;26075;43.320;21.920;2022-11-15T19:47:37;59.92;;;42.88;;
40367;SDS011;26075;43.320;21.920;2022-11-15T19:52:38;59.83;;;39.60;;
40367;SDS011;26075;43.320;21.920;2022-11-15T19:57:39;52.25;;;35.92;;
40367;SDS011;26075;43.320;21.920;2022-11-15T20:02:40;51.40;;;35.60;;
40367;SDS011;26075;43.320;21.920;2022-11-15T20:07:41;48.50;;;32.63;;
40367;SDS011;26075;43.320;21.920;2022-11-15T20:12:42;44.42;;;32.03;;
40367;SDS011;26075;43.320;21.920;2022-11-15T20:17:43;46.08;;;33.03;;
40367;SDS011;26075;43.320;21.920;2022-11-15T20:22:44;52.50;;;36.47;;
40367;SDS011;26075;43.320;21.920;2022-11-15T20:27:46;67.63;;;41.92;;
40367;SDS011;26075;43.320;21.920;2022-11-15T20:32:47;75.53;;;47.58;;
40367;SDS011;26075;43.320;21.920;2022-11-15T20:37:48;67.10;;;43.25;;
40367;SDS011;26075;43.320;21.920;2022-11-15T20:42:52;64.05;;;42.83;;
40367;SDS011;26075;43.320;21.920;2022-11-15T20:47:54;58.00;;;41.63;;
40367;SDS011;26075;43.320;21.920;2022-11-15T20:52:55;60.05;;;38.67;;
40367;SDS011;26075;43.320;21.920;2022-11-15T20:57:57;45.00;;;30.95;;
40367;SDS011;26075;43.320;21.920;2022-11-15T21:02:58;74.10;;;49.88;;
40367;SDS011;26075;43.320;21.920;2022-11-15T21:07:59;101.85;;;68.80;;
40367;SDS011;26075;43.320;21.920;2022-11-15T21:13:00;97.25;;;62.80;;
40367;SDS011;26075;43.320;21.920;2022-11-15T21:18:01;107.20;;;70.90;;
40367;SDS011;26075;43.320;21.920;2022-11-15T21:23:02;100.93;;;66.32;;
40367;SDS011;26075;43.320;21.920;2022-11-15T21:28:03;113.82;;;76.95;;
40367;SDS011;26075;43.320;21.920;2022-11-15T21:33:04;125.45;;;87.82;;
40367;SDS011;26075;43.320;21.920;2022-11-15T21:38:05;137.65;;;92.20;;
40367;SDS011;26075;43.320;21.920;2022-11-15T21:43:06;154.07;;;104.05;;
40367;SDS011;26075;43.320;21.920;2022-11-15T21:48:07;158.40;;;110.63;;
40367;SDS011;26075;43.320;21.920;2022-11-15T21:53:08;174.55;;;119.43;;
40367;SDS011;26075;43.320;21.920;2022-11-15T21:58:09;167.52;;;113.40;;
40367;SDS011;26075;43.320;21.920;2022-11-15T22:03:10;166.25;;;109.97;;
40367;SDS011;26075;43.320;21.920;2022-11-15T22:08:11;157.90;;;109.18;;
40367;SDS011;26075;43.320;21.920;2022-11-15T22:13:12;159.13;;;108.50;;
40367;SDS011;26075;43.320;21.920;2022-11-15T22:18:13;156.93;;;108.00;;
40367;SDS011;26075;43.320;21.920;2022-11-15T22:23:15;159.25;;;107.95;;
40367;SDS011;26075;43.320;21.920;2022-11-15T22:28:16;172.77;;;123.97;;
40367;SDS011;26075;43.320;21.920;2022-11-15T22:33:18;168.25;;;116.30;;
40367;SDS011;26075;43.320;21.920;2022-11-15T22:38:20;166.75;;;114.70;;
40367;SDS011;26075;43.320;21.920;2022-11-15T22:43:22;171.18;;;113.97;;
40367;SDS011;26075;43.320;21.920;2022-11-15T22:48:24;164.55;;;110.78;;
40367;SDS011;26075;43.320;21.920;2022-11-15T22:53:26;157.77;;;108.68;;
40367;SDS011;26075;43.320;21.920;2022-11-15T22:58:28;162.65;;;108.72;;
40367;SDS011;26075;43.320;21.920;2022-11-15T23:03:29;158.55;;;107.63;;
40367;SDS011;26075;43.320;21.920;2022-11-15T23:08:31;155.27;;;105.57;;
40367;SDS011;26075;43.320;21.920;2022-11-15T23:13:32;156.57;;;105.45;;
40367;SDS011;26075;43.320;21.920;2022-11-15T23:18:34;150.95;;;100.38;;
40367;SDS011;26075;43.320;21.920;2022-11-15T23:23:36;156.38;;;102.68;;
40367;SDS011;26075;43.320;21.920;2022-11-15T23:28:37;148.02;;;99.72;;
40367;SDS011;26075;43.320;21.920;2022-11-15T23:33:38;144.60;;;97.20;;
40367;SDS011;26075;43.320;21.920;2022-11-15T23:38:57;146.10;;;96.60;;
40367;SDS011;26075;43.320;21.920;2022-11-15T23:43:58;146.68;;;98.50;;
40367;SDS011;26075;43.320;21.920;2022-11-15T23:48:59;156.15;;;102.63;;
40367;SDS011;26075;43.320;21.920;2022-11-15T23:54:00;173.60;;;114.25;;
40367;SDS011;26075;43.320;21.920;2022-11-15T23:59:02;190.40;;;125.45;;
